sensor_id;sensor_type;location;lat;lon;timestamp;pressure;altitude;pressure_sealevel;temperature;humidity
21086;BME280;72320;50.082;20.000;2023-12-04T09:24:47;99858.40;;;0.41;100.00
21086;BME280;72320;50.082;20.000;2023-12-04T09:27:13;99853.45;;;0.45;100.00
21086;BME280;72320;50.082;20.000;2023-12-04T09:29:40;99861.50;;;0.53;100.00
21086;BME280;72320;50.082;20.000;2023-12-04T09:32:06;99851.15;;;0.57;100.00
21086;BME280;72320;50.082;20.000;2023-12-04T09:34:32;99854.63;;;0.66;100.00
21086;BME280;72320;50.082;20.000;2023-12-04T09:36:58;99848.57;;;0.73;100.00
21086;BME280;72320;50.082;20.000;2023-12-04T09:39:23;99839.73;;;0.79;100.00
21086;BME280;72320;50.082;20.000;2023-12-04T09:41:50;99834.30;;;0.81;100.00
21086;BME280;72320;50.082;20.000;2023-12-04T09:44:17;99837.05;;;0.83;100.00
21086;BME280;72320;50.082;20.000;2023-12-04T09:46:43;99836.65;;;0.85;100.00
21086;BME280;72320;50.082;20.000;2023-12-04T09:49:10;99832.84;;;0.84;100.00
21086;BME280;72320;50.082;20.000;2023-12-04T10:04:53;99814.91;;;0.75;100.00
21086;BME280;72320;50.082;20.000;2023-12-04T10:07:19;99812.20;;;0.79;100.00
21086;BME280;72320;50.082;20.000;2023-12-04T10:09:46;99803.92;;;0.84;100.00
21086;BME280;72320;50.082;20.000;2023-12-04T10:12:12;99805.09;;;0.87;100.00
21086;BME280;72320;50.082;20.000;2023-12-04T10:14:38;99800.05;;;0.86;100.00
21086;BME280;72320;50.082;20.000;2023-12-04T10:17:16;99797.77;;;0.87;100.00
21086;BME280;72320;50.082;20.000;2023-12-04T10:19:45;99793.55;;;0.89;100.00
21086;BME280;72320;50.082;20.000;2023-12-04T10:22:11;99791.19;;;0.94;100.00
21086;BME280;72320;50.082;20.000;2023-12-04T10:24:39;99787.83;;;0.96;100.00
21086;BME280;72320;50.082;20.000;2023-12-04T10:27:06;99783.58;;;0.99;100.00
21086;BME280;72320;50.082;20.000;2023-12-04T10:29:47;99783.61;;;1.05;100.00
21086;BME280;72320;50.082;20.000;2023-12-04T11:14:16;99751.06;;;0.79;100.00
21086;BME280;72320;50.082;20.000;2023-12-04T11:21:14;99741.22;;;0.75;100.00
21086;BME280;72320;50.082;20.000;2023-12-04T11:23:47;99736.76;;;0.71;100.00
21086;BME280;72320;50.082;20.000;2023-12-04T11:26:21;99734.27;;;0.82;100.00
21086;BME280;72320;50.082;20.000;2023-12-04T11:28:55;99730.77;;;0.90;100.00
21086;BME280;72320;50.082;20.000;2023-12-04T11:31:27;99732.04;;;0.89;100.00
21086;BME280;72320;50.082;20.000;2023-12-04T11:34:04;99729.70;;;0.83;100.00
21086;BME280;72320;50.082;20.000;2023-12-04T11:37:34;99730.95;;;0.91;100.00
21086;BME280;72320;50.082;20.000;2023-12-04T11:40:16;99731.36;;;0.88;100.00
21086;BME280;72320;50.082;20.000;2023-12-04T11:42:47;99726.90;;;0.93;100.00
21086;BME280;72320;50.082;20.000;2023-12-04T11:45:23;99720.27;;;1.00;100.00
21086;BME280;72320;50.082;20.000;2023-12-04T11:47:57;99721.19;;;1.06;100.00
21086;BME280;72320;50.082;20.000;2023-12-04T11:50:29;99717.41;;;1.12;100.00
21086;BME280;72320;50.082;20.000;2023-12-04T11:53:05;99715.55;;;1.16;100.00
21086;BME280;72320;50.082;20.000;2023-12-04T11:55:40;99706.84;;;1.16;100.00
21086;BME280;72320;50.082;20.000;2023-12-04T11:58:13;99707.95;;;1.21;100.00
21086;BME280;72320;50.082;20.000;2023-12-04T12:00:46;99706.75;;;1.20;100.00
21086;BME280;72320;50.082;20.000;2023-12-04T12:03:18;99705.33;;;1.21;100.00
21086;BME280;72320;50.082;20.000;2023-12-04T12:05:52;99700.81;;;1.20;100.00
21086;BME280;72320;50.082;20.000;2023-12-04T12:08:25;99698.38;;;1.20;100.00
21086;BME280;72320;50.082;20.000;2023-12-04T12:11:00;99693.81;;;1.22;100.00
21086;BME280;72320;50.082;20.000;2023-12-04T12:13:32;99691.92;;;1.21;100.00
21086;BME280;72320;50.082;20.000;2023-12-04T12:16:04;99686.27;;;1.24;100.00
21086;BME280;72320;50.082;20.000;2023-12-04T12:18:39;99687.30;;;1.24;100.00
21086;BME280;72320;50.082;20.000;2023-12-04T12:21:19;99689.23;;;1.30;100.00
21086;BME280;72320;50.082;20.000;2023-12-04T12:23:51;99685.67;;;1.20;100.00
21086;BME280;72320;50.082;20.000;2023-12-04T12:28:49;99679.17;;;1.14;100.00
21086;BME280;72320;50.082;20.000;2023-12-04T12:31:22;99679.59;;;1.11;100.00
21086;BME280;72320;50.082;20.000;2023-12-04T12:33:56;99671.88;;;1.20;100.00
21086;BME280;72320;50.082;20.000;2023-12-04T12:36:55;99676.59;;;1.27;100.00
21086;BME280;72320;50.082;20.000;2023-12-04T12:39:35;99667.73;;;1.19;100.00
21086;BME280;72320;50.082;20.000;2023-12-04T12:42:28;99662.17;;;1.10;100.00
21086;BME280;72320;50.082;20.000;2023-12-04T12:45:04;99662.59;;;1.00;100.00
21086;BME280;72320;50.082;20.000;2023-12-04T12:47:45;99657.93;;;1.06;100.00
21086;BME280;72320;50.082;20.000;2023-12-04T12:50:18;99661.58;;;0.91;100.00
21086;BME280;72320;50.082;20.000;2023-12-04T12:59:08;99647.58;;;0.86;100.00
21086;BME280;72320;50.082;20.000;2023-12-04T13:01:34;99641.67;;;0.78;100.00
21086;BME280;72320;50.082;20.000;2023-12-04T13:04:00;99638.91;;;0.85;100.00
21086;BME280;72320;50.082;20.000;2023-12-04T13:06:35;99636.12;;;0.84;100.00
21086;BME280;72320;50.082;20.000;2023-12-04T13:09:01;99636.20;;;0.66;100.00
21086;BME280;72320;50.082;20.000;2023-12-04T13:11:27;99632.39;;;0.57;100.00
21086;BME280;72320;50.082;20.000;2023-12-04T13:13:53;99628.08;;;0.55;100.00
21086;BME280;72320;50.082;20.000;2023-12-04T13:16:19;99624.73;;;0.50;100.00
21086;BME280;72320;50.082;20.000;2023-12-04T13:18:55;99624.71;;;0.42;100.00
21086;BME280;72320;50.082;20.000;2023-12-04T13:21:21;99629.11;;;0.32;100.00
21086;BME280;72320;50.082;20.000;2023-12-04T13:23:46;99628.96;;;0.39;100.00
21086;BME280;72320;50.082;20.000;2023-12-04T13:26:12;99618.04;;;0.45;100.00
21086;BME280;72320;50.082;20.000;2023-12-04T13:28:38;99623.66;;;0.50;100.00
21086;BME280;72320;50.082;20.000;2023-12-04T13:31:07;99619.81;;;0.51;100.00
21086;BME280;72320;50.082;20.000;2023-12-04T13:33:33;99619.27;;;0.45;100.00
21086;BME280;72320;50.082;20.000;2023-12-04T13:35:58;99623.89;;;0.40;100.00
21086;BME280;72320;50.082;20.000;2023-12-04T13:38:25;99621.11;;;0.32;100.00
21086;BME280;72320;50.082;20.000;2023-12-04T13:40:50;99618.46;;;0.25;100.00
21086;BME280;72320;50.082;20.000;2023-12-04T13:43:34;99611.61;;;0.12;100.00
21086;BME280;72320;50.082;20.000;2023-12-04T13:46:19;99611.60;;;0.04;100.00
21086;BME280;72320;50.082;20.000;2023-12-04T13:48:45;99607.70;;;-0.02;100.00
21086;BME280;72320;50.082;20.000;2023-12-04T13:51:13;99604.03;;;-0.09;100.00
21086;BME280;72320;50.082;20.000;2023-12-04T13:53:39;99601.07;;;-0.18;100.00
21086;BME280;72320;50.082;20.000;2023-12-04T13:56:13;99601.45;;;-0.28;100.00
21086;BME280;72320;50.082;20.000;2023-12-04T13:59:07;99599.19;;;-0.56;100.00
21086;BME280;72320;50.082;20.000;2023-12-04T14:01:34;99598.98;;;-0.74;100.00
21086;BME280;72320;50.082;20.000;2023-12-04T14:04:04;99593.55;;;-0.81;100.00
21086;BME280;72320;50.082;20.000;2023-12-04T14:06:32;99591.74;;;-0.77;100.00
21086;BME280;72320;50.082;20.000;2023-12-04T14:08:58;99595.44;;;-0.80;100.00
21086;BME280;72320;50.082;20.000;2023-12-04T14:11:24;99592.84;;;-0.81;100.00
21086;BME280;72320;50.082;20.000;2023-12-04T14:13:50;99592.31;;;-0.80;100.00
21086;BME280;72320;50.082;20.000;2023-12-04T14:16:26;99587.57;;;-0.77;100.00
21086;BME280;72320;50.082;20.000;2023-12-04T14:18:52;99588.69;;;-0.91;100.00
21086;BME280;72320;50.082;20.000;2023-12-04T14:21:18;99581.16;;;-0.88;100.00
21086;BME280;72320;50.082;20.000;2023-12-04T14:23:44;99577.95;;;-0.84;100.00
21086;BME280;72320;50.082;20.000;2023-12-04T14:26:10;99577.80;;;-0.85;100.00
21086;BME280;72320;50.082;20.000;2023-12-04T14:28:36;99581.33;;;-0.88;100.00
21086;BME280;72320;50.082;20.000;2023-12-04T14:31:02;99576.36;;;-0.91;100.00
21086;BME280;72320;50.082;20.000;2023-12-04T14:33:28;99577.30;;;-0.96;100.00
21086;BME280;72320;50.082;20.000;2023-12-04T14:35:54;99573.89;;;-1.00;100.00
21086;BME280;72320;50.082;20.000;2023-12-04T14:38:20;99569.55;;;-0.99;100.00
21086;BME280;72320;50.082;20.000;2023-12-04T14:40:46;99567.29;;;-0.99;100.00
21086;BME280;72320;50.082;20.000;2023-12-04T14:43:12;99561.26;;;-1.02;100.00
21086;BME280;72320;50.082;20.000;2023-12-04T14:45:38;99560.35;;;-1.11;100.00
21086;BME280;72320;50.082;20.000;2023-12-04T14:48:05;99560.95;;;-1.15;100.00
21086;BME280;72320;50.082;20.000;2023-12-04T14:50:34;99557.84;;;-1.27;100.00
21086;BME280;72320;50.082;20.000;2023-12-04T14:53:05;99555.58;;;-1.38;100.00
21086;BME280;72320;50.082;20.000;2023-12-04T14:55:55;99553.44;;;-1.45;100.00
21086;BME280;72320;50.082;20.000;2023-12-04T14:58:39;99546.05;;;-1.38;100.00
21086;BME280;72320;50.082;20.000;2023-12-04T15:01:12;99544.29;;;-1.37;100.00
21086;BME280;72320;50.082;20.000;2023-12-04T15:03:56;99542.13;;;-1.32;100.00
21086;BME280;72320;50.082;20.000;2023-12-04T15:06:37;99544.02;;;-1.32;100.00
21086;BME280;72320;50.082;20.000;2023-12-04T15:09:25;99550.92;;;-1.51;100.00
21086;BME280;72320;50.082;20.000;2023-12-04T15:12:17;99551.73;;;-1.58;100.00
21086;BME280;72320;50.082;20.000;2023-12-04T15:14:53;99552.13;;;-1.62;100.00
21086;BME280;72320;50.082;20.000;2023-12-04T15:17:39;99554.82;;;-1.68;100.00
21086;BME280;72320;50.082;20.000;2023-12-04T15:20:17;99556.27;;;-1.72;100.00
21086;BME280;72320;50.082;20.000;2023-12-04T15:22:52;99554.69;;;-1.71;100.00
21086;BME280;72320;50.082;20.000;2023-12-04T15:25:18;99554.54;;;-1.72;100.00
21086;BME280;72320;50.082;20.000;2023-12-04T15:27:55;99555.41;;;-1.85;100.00
21086;BME280;72320;50.082;20.000;2023-12-04T15:30:20;99556.40;;;-2.06;100.00
21086;BME280;72320;50.082;20.000;2023-12-04T15:32:46;99559.36;;;-2.08;100.00
21086;BME280;72320;50.082;20.000;2023-12-04T15:35:12;99554.77;;;-2.02;100.00
21086;BME280;72320;50.082;20.000;2023-12-04T15:37:38;99554.31;;;-1.94;100.00
21086;BME280;72320;50.082;20.000;2023-12-04T15:40:05;99552.17;;;-2.14;100.00
21086;BME280;72320;50.082;20.000;2023-12-04T15:42:36;99550.15;;;-2.50;100.00
21086;BME280;72320;50.082;20.000;2023-12-04T15:45:10;99540.16;;;-2.70;100.00
21086;BME280;72320;50.082;20.000;2023-12-04T15:47:48;99532.06;;;-2.91;100.00
21086;BME280;72320;50.082;20.000;2023-12-04T15:50:14;99533.94;;;-3.06;100.00
21086;BME280;72320;50.082;20.000;2023-12-04T15:52:40;99533.92;;;-3.05;100.00
21086;BME280;72320;50.082;20.000;2023-12-04T15:55:09;99529.42;;;-3.03;100.00
21086;BME280;72320;50.082;20.000;2023-12-04T15:57:37;99527.48;;;-3.00;100.00
21086;BME280;72320;50.082;20.000;2023-12-04T16:00:05;99521.73;;;-2.98;100.00
21086;BME280;72320;50.082;20.000;2023-12-04T16:02:42;99517.92;;;-2.97;100.00
21086;BME280;72320;50.082;20.000;2023-12-04T16:05:08;99520.13;;;-2.93;100.00
21086;BME280;72320;50.082;20.000;2023-12-04T16:07:37;99520.28;;;-3.09;100.00
21086;BME280;72320;50.082;20.000;2023-12-04T16:10:05;99517.80;;;-3.20;100.00
21086;BME280;72320;50.082;20.000;2023-12-04T16:12:35;99515.65;;;-3.13;100.00
21086;BME280;72320;50.082;20.000;2023-12-04T16:15:05;99510.91;;;-3.24;100.00
21086;BME280;72320;50.082;20.000;2023-12-04T16:17:34;99508.16;;;-3.27;100.00
21086;BME280;72320;50.082;20.000;2023-12-04T16:20:03;99504.77;;;-3.16;100.00
21086;BME280;72320;50.082;20.000;2023-12-04T16:22:31;99503.30;;;-3.07;100.00
21086;BME280;72320;50.082;20.000;2023-12-04T16:24:57;99501.10;;;-3.12;100.00
21086;BME280;72320;50.082;20.000;2023-12-04T16:27:23;99508.51;;;-3.26;100.00
21086;BME280;72320;50.082;20.000;2023-12-04T16:29:49;99501.90;;;-3.42;100.00
21086;BME280;72320;50.082;20.000;2023-12-04T16:32:15;99502.83;;;-3.49;100.00
21086;BME280;72320;50.082;20.000;2023-12-04T16:34:41;99501.52;;;-3.59;100.00
21086;BME280;72320;50.082;20.000;2023-12-04T16:37:07;99502.75;;;-3.64;100.00
21086;BME280;72320;50.082;20.000;2023-12-04T16:39:32;99503.71;;;-3.53;100.00
21086;BME280;72320;50.082;20.000;2023-12-04T16:41:58;99501.71;;;-3.40;100.00
21086;BME280;72320;50.082;20.000;2023-12-04T16:44:24;99494.02;;;-3.34;100.00
21086;BME280;72320;50.082;20.000;2023-12-04T16:46:50;99497.42;;;-3.26;100.00
21086;BME280;72320;50.082;20.000;2023-12-04T16:49:22;99500.77;;;-3.14;100.00
21086;BME280;72320;50.082;20.000;2023-12-04T16:51:49;99503.95;;;-3.02;100.00
21086;BME280;72320;50.082;20.000;2023-12-04T16:54:15;99499.17;;;-2.93;100.00
21086;BME280;72320;50.082;20.000;2023-12-04T16:56:41;99493.00;;;-2.98;100.00
21086;BME280;72320;50.082;20.000;2023-12-04T16:59:08;99487.80;;;-2.97;100.00
21086;BME280;72320;50.082;20.000;2023-12-04T17:01:54;99486.75;;;-2.81;100.00
21086;BME280;72320;50.082;20.000;2023-12-04T17:04:29;99483.34;;;-2.85;100.00
21086;BME280;72320;50.082;20.000;2023-12-04T17:06:55;99480.73;;;-2.84;100.00
21086;BME280;72320;50.082;20.000;2023-12-04T17:09:22;99477.09;;;-2.84;100.00
21086;BME280;72320;50.082;20.000;2023-12-04T17:11:48;99467.92;;;-2.86;100.00
21086;BME280;72320;50.082;20.000;2023-12-04T17:14:14;99470.63;;;-2.79;100.00
21086;BME280;72320;50.082;20.000;2023-12-04T17:16:40;99468.20;;;-2.80;100.00
21086;BME280;72320;50.082;20.000;2023-12-04T17:19:10;99460.15;;;-3.02;100.00
21086;BME280;72320;50.082;20.000;2023-12-04T17:21:36;99452.75;;;-3.24;100.00
21086;BME280;72320;50.082;20.000;2023-12-04T17:24:14;99464.76;;;-3.30;100.00
21086;BME280;72320;50.082;20.000;2023-12-04T17:26:59;99463.38;;;-3.31;100.00
21086;BME280;72320;50.082;20.000;2023-12-04T17:29:25;99449.00;;;-3.29;100.00
21086;BME280;72320;50.082;20.000;2023-12-04T17:31:50;99446.98;;;-3.17;100.00
21086;BME280;72320;50.082;20.000;2023-12-04T17:34:18;99445.73;;;-3.30;100.00
21086;BME280;72320;50.082;20.000;2023-12-04T17:36:45;99444.71;;;-3.34;100.00
21086;BME280;72320;50.082;20.000;2023-12-04T17:39:13;99448.73;;;-3.37;100.00
21086;BME280;72320;50.082;20.000;2023-12-04T17:41:43;99447.23;;;-3.43;100.00
21086;BME280;72320;50.082;20.000;2023-12-04T17:44:11;99442.83;;;-3.54;100.00
21086;BME280;72320;50.082;20.000;2023-12-04T17:46:38;99434.24;;;-3.61;100.00
21086;BME280;72320;50.082;20.000;2023-12-04T17:49:04;99443.11;;;-3.47;100.00
21086;BME280;72320;50.082;20.000;2023-12-04T17:51:31;99443.21;;;-3.40;100.00
21086;BME280;72320;50.082;20.000;2023-12-04T17:53:57;99443.15;;;-3.33;100.00
21086;BME280;72320;50.082;20.000;2023-12-04T17:56:24;99441.78;;;-3.35;100.00
21086;BME280;72320;50.082;20.000;2023-12-04T17:58:50;99440.06;;;-3.35;100.00
21086;BME280;72320;50.082;20.000;2023-12-04T18:01:16;99439.98;;;-3.27;100.00
21086;BME280;72320;50.082;20.000;2023-12-04T18:03:41;99440.19;;;-3.31;100.00
21086;BME280;72320;50.082;20.000;2023-12-04T18:06:08;99441.20;;;-3.28;100.00
21086;BME280;72320;50.082;20.000;2023-12-04T18:08:33;99436.54;;;-3.29;100.00
21086;BME280;72320;50.082;20.000;2023-12-04T18:11:00;99430.48;;;-3.12;100.00
21086;BME280;72320;50.082;20.000;2023-12-04T18:13:25;99426.27;;;-3.22;100.00
21086;BME280;72320;50.082;20.000;2023-12-04T18:15:51;99417.59;;;-3.37;100.00
21086;BME280;72320;50.082;20.000;2023-12-04T18:18:17;99421.75;;;-3.39;100.00
21086;BME280;72320;50.082;20.000;2023-12-04T18:20:43;99415.71;;;-3.41;100.00
21086;BME280;72320;50.082;20.000;2023-12-04T18:23:12;99411.17;;;-3.53;100.00
21086;BME280;72320;50.082;20.000;2023-12-04T18:25:39;99407.38;;;-3.56;100.00
21086;BME280;72320;50.082;20.000;2023-12-04T18:28:05;99409.85;;;-3.43;100.00
21086;BME280;72320;50.082;20.000;2023-12-04T18:30:31;99412.30;;;-3.46;100.00
21086;BME280;72320;50.082;20.000;2023-12-04T18:32:58;99413.15;;;-3.45;100.00
21086;BME280;72320;50.082;20.000;2023-12-04T18:35:25;99408.77;;;-3.38;100.00
21086;BME280;72320;50.082;20.000;2023-12-04T18:38:02;99410.98;;;-3.34;100.00
21086;BME280;72320;50.082;20.000;2023-12-04T18:40:31;99409.77;;;-3.36;100.00
21086;BME280;72320;50.082;20.000;2023-12-04T18:42:57;99409.60;;;-3.36;100.00
21086;BME280;72320;50.082;20.000;2023-12-04T18:45:25;99408.65;;;-3.27;100.00
21086;BME280;72320;50.082;20.000;2023-12-04T18:48:15;99408.40;;;-3.19;100.00
21086;BME280;72320;50.082;20.000;2023-12-04T18:50:52;99394.73;;;-3.20;100.00
21086;BME280;72320;50.082;20.000;2023-12-04T18:53:18;99385.44;;;-3.24;100.00
21086;BME280;72320;50.082;20.000;2023-12-04T18:55:44;99388.89;;;-3.10;100.00
21086;BME280;72320;50.082;20.000;2023-12-04T18:58:10;99389.33;;;-3.18;100.00
21086;BME280;72320;50.082;20.000;2023-12-04T19:00:40;99389.44;;;-3.26;100.00
21086;BME280;72320;50.082;20.000;2023-12-04T19:03:06;99385.26;;;-3.24;100.00
21086;BME280;72320;50.082;20.000;2023-12-04T19:05:40;99373.93;;;-3.17;100.00
21086;BME280;72320;50.082;20.000;2023-12-04T19:08:06;99374.20;;;-3.27;100.00
21086;BME280;72320;50.082;20.000;2023-12-04T19:10:32;99383.98;;;-3.33;100.00
21086;BME280;72320;50.082;20.000;2023-12-04T19:12:58;99391.30;;;-3.24;100.00
21086;BME280;72320;50.082;20.000;2023-12-04T19:15:26;99389.63;;;-3.13;100.00
21086;BME280;72320;50.082;20.000;2023-12-04T19:17:53;99372.60;;;-3.08;100.00
21086;BME280;72320;50.082;20.000;2023-12-04T19:20:19;99346.39;;;-3.31;100.00
21086;BME280;72320;50.082;20.000;2023-12-04T19:22:44;99354.52;;;-3.30;100.00
21086;BME280;72320;50.082;20.000;2023-12-04T19:25:10;99377.85;;;-3.13;100.00
21086;BME280;72320;50.082;20.000;2023-12-04T19:27:37;99383.95;;;-3.01;100.00
21086;BME280;72320;50.082;20.000;2023-12-04T19:30:03;99381.20;;;-3.03;100.00
21086;BME280;72320;50.082;20.000;2023-12-04T19:32:29;99379.30;;;-3.02;100.00
21086;BME280;72320;50.082;20.000;2023-12-04T19:34:55;99377.41;;;-3.04;100.00
21086;BME280;72320;50.082;20.000;2023-12-04T19:37:21;99367.87;;;-3.03;100.00
21086;BME280;72320;50.082;20.000;2023-12-04T19:39:47;99360.99;;;-2.93;100.00
21086;BME280;72320;50.082;20.000;2023-12-04T19:42:12;99364.48;;;-2.81;100.00
21086;BME280;72320;50.082;20.000;2023-12-04T19:44:45;99358.60;;;-2.81;100.00
21086;BME280;72320;50.082;20.000;2023-12-04T19:47:12;99346.49;;;-2.84;100.00
21086;BME280;72320;50.082;20.000;2023-12-04T19:49:42;99337.46;;;-2.94;100.00
21086;BME280;72320;50.082;20.000;2023-12-04T19:52:08;99341.70;;;-2.87;100.00
21086;BME280;72320;50.082;20.000;2023-12-04T19:54:41;99349.73;;;-2.93;100.00
21086;BME280;72320;50.082;20.000;2023-12-04T19:57:07;99354.11;;;-2.96;100.00
21086;BME280;72320;50.082;20.000;2023-12-04T19:59:36;99355.51;;;-2.97;100.00
21086;BME280;72320;50.082;20.000;2023-12-04T20:02:03;99362.81;;;-3.15;100.00
21086;BME280;72320;50.082;20.000;2023-12-04T20:04:30;99360.99;;;-3.21;100.00
21086;BME280;72320;50.082;20.000;2023-12-04T20:06:57;99358.40;;;-3.07;100.00
21086;BME280;72320;50.082;20.000;2023-12-04T20:09:23;99353.29;;;-2.99;100.00
21086;BME280;72320;50.082;20.000;2023-12-04T20:11:53;99354.68;;;-2.86;100.00
21086;BME280;72320;50.082;20.000;2023-12-04T20:14:19;99353.05;;;-2.81;100.00
21086;BME280;72320;50.082;20.000;2023-12-04T20:16:49;99344.82;;;-2.87;100.00
21086;BME280;72320;50.082;20.000;2023-12-04T20:19:18;99343.55;;;-2.84;100.00
21086;BME280;72320;50.082;20.000;2023-12-04T20:21:45;99342.59;;;-2.75;100.00
21086;BME280;72320;50.082;20.000;2023-12-04T20:24:11;99349.44;;;-2.83;100.00
21086;BME280;72320;50.082;20.000;2023-12-04T20:26:37;99345.71;;;-2.77;100.00
21086;BME280;72320;50.082;20.000;2023-12-04T20:29:03;99337.85;;;-2.85;100.00
21086;BME280;72320;50.082;20.000;2023-12-04T20:31:29;99338.05;;;-2.87;100.00
21086;BME280;72320;50.082;20.000;2023-12-04T20:33:57;99341.73;;;-2.90;100.00
21086;BME280;72320;50.082;20.000;2023-12-04T20:36:24;99348.93;;;-2.97;100.00
21086;BME280;72320;50.082;20.000;2023-12-04T20:38:50;99351.52;;;-3.12;100.00
21086;BME280;72320;50.082;20.000;2023-12-04T20:41:19;99339.09;;;-3.00;100.00
21086;BME280;72320;50.082;20.000;2023-12-04T20:43:45;99329.40;;;-2.87;100.00
21086;BME280;72320;50.082;20.000;2023-12-04T20:46:11;99334.38;;;-2.84;100.00
21086;BME280;72320;50.082;20.000;2023-12-04T20:48:39;99335.81;;;-2.89;100.00
21086;BME280;72320;50.082;20.000;2023-12-04T20:51:06;99330.03;;;-2.96;100.00
21086;BME280;72320;50.082;20.000;2023-12-04T20:53:33;99330.13;;;-3.02;100.00
21086;BME280;72320;50.082;20.000;2023-12-04T20:55:59;99317.97;;;-3.01;100.00
21086;BME280;72320;50.082;20.000;2023-12-04T20:58:25;99309.05;;;-2.94;100.00
21086;BME280;72320;50.082;20.000;2023-12-04T21:00:51;99302.46;;;-2.80;100.00
21086;BME280;72320;50.082;20.000;2023-12-04T21:03:17;99298.65;;;-2.68;100.00
21086;BME280;72320;50.082;20.000;2023-12-04T21:05:43;99299.38;;;-2.59;100.00
21086;BME280;72320;50.082;20.000;2023-12-04T21:08:10;99298.80;;;-2.55;100.00
21086;BME280;72320;50.082;20.000;2023-12-04T21:10:39;99304.39;;;-2.47;100.00
21086;BME280;72320;50.082;20.000;2023-12-04T21:13:06;99304.34;;;-2.56;100.00
21086;BME280;72320;50.082;20.000;2023-12-04T21:15:32;99298.19;;;-2.72;100.00
21086;BME280;72320;50.082;20.000;2023-12-04T21:17:57;99286.76;;;-2.84;100.00
21086;BME280;72320;50.082;20.000;2023-12-04T21:20:24;99294.95;;;-2.76;100.00
21086;BME280;72320;50.082;20.000;2023-12-04T21:22:50;99302.10;;;-2.68;100.00
21086;BME280;72320;50.082;20.000;2023-12-04T21:25:18;99310.98;;;-2.60;100.00
21086;BME280;72320;50.082;20.000;2023-12-04T21:27:43;99302.16;;;-2.60;100.00
21086;BME280;72320;50.082;20.000;2023-12-04T21:30:10;99293.36;;;-2.74;100.00
21086;BME280;72320;50.082;20.000;2023-12-04T21:32:40;99284.95;;;-2.93;100.00
21086;BME280;72320;50.082;20.000;2023-12-04T21:35:06;99281.48;;;-3.15;100.00
21086;BME280;72320;50.082;20.000;2023-12-04T21:37:32;99275.20;;;-3.26;100.00
21086;BME280;72320;50.082;20.000;2023-12-04T21:39:58;99271.96;;;-3.29;100.00
21086;BME280;72320;50.082;20.000;2023-12-04T21:42:25;99263.91;;;-3.23;100.00
21086;BME280;72320;50.082;20.000;2023-12-04T21:44:54;99258.50;;;-3.07;100.00
21086;BME280;72320;50.082;20.000;2023-12-04T21:47:20;99258.86;;;-2.95;100.00
21086;BME280;72320;50.082;20.000;2023-12-04T21:49:46;99261.84;;;-2.98;100.00
21086;BME280;72320;50.082;20.000;2023-12-04T21:52:12;99267.42;;;-3.01;100.00
21086;BME280;72320;50.082;20.000;2023-12-04T21:54:38;99269.13;;;-3.11;100.00
21086;BME280;72320;50.082;20.000;2023-12-04T21:57:04;99271.73;;;-3.13;100.00
21086;BME280;72320;50.082;20.000;2023-12-04T21:59:31;99273.33;;;-3.15;100.00
21086;BME280;72320;50.082;20.000;2023-12-04T22:01:59;99269.49;;;-3.13;100.00
21086;BME280;72320;50.082;20.000;2023-12-04T22:04:25;99266.11;;;-3.07;100.00
21086;BME280;72320;50.082;20.000;2023-12-04T22:07:09;99262.30;;;-3.19;100.00
21086;BME280;72320;50.082;20.000;2023-12-04T22:09:50;99259.68;;;-3.30;100.00
21086;BME280;72320;50.082;20.000;2023-12-04T22:12:16;99255.04;;;-3.34;100.00
21086;BME280;72320;50.082;20.000;2023-12-04T22:14:42;99252.29;;;-3.34;100.00
21086;BME280;72320;50.082;20.000;2023-12-04T22:17:11;99253.25;;;-3.41;100.00
21086;BME280;72320;50.082;20.000;2023-12-04T22:19:37;99247.59;;;-3.46;100.00
21086;BME280;72320;50.082;20.000;2023-12-04T22:22:03;99242.63;;;-3.36;100.00
21086;BME280;72320;50.082;20.000;2023-12-04T22:24:30;99240.77;;;-3.15;100.00
21086;BME280;72320;50.082;20.000;2023-12-04T22:26:56;99239.05;;;-3.16;100.00
21086;BME280;72320;50.082;20.000;2023-12-04T22:29:23;99230.52;;;-3.36;100.00
21086;BME280;72320;50.082;20.000;2023-12-04T22:32:00;99233.23;;;-3.60;100.00
21086;BME280;72320;50.082;20.000;2023-12-04T22:36:22;99233.77;;;-3.77;100.00
21086;BME280;72320;50.082;20.000;2023-12-04T22:38:48;99221.40;;;-3.83;100.00
21086;BME280;72320;50.082;20.000;2023-12-04T22:41:15;99211.70;;;-3.68;100.00
21086;BME280;72320;50.082;20.000;2023-12-04T22:43:41;99206.05;;;-3.44;100.00
21086;BME280;72320;50.082;20.000;2023-12-04T22:46:11;99195.89;;;-3.34;100.00
21086;BME280;72320;50.082;20.000;2023-12-04T22:48:42;99196.34;;;-3.42;100.00
21086;BME280;72320;50.082;20.000;2023-12-04T22:51:08;99205.94;;;-3.62;100.00
21086;BME280;72320;50.082;20.000;2023-12-04T22:55:07;99210.44;;;-3.93;100.00
21086;BME280;72320;50.082;20.000;2023-12-04T22:57:33;99211.59;;;-4.03;100.00
21086;BME280;72320;50.082;20.000;2023-12-04T23:02:28;99111.35;;;13.07;97.66
21086;BME280;72320;50.082;20.000;2023-12-04T23:07:58;99090.02;;;21.01;54.98
21086;BME280;72320;50.082;20.000;2023-12-04T23:25:01;99213.12;;;16.36;32.59
21086;BME280;72320;50.082;20.000;2023-12-04T23:27:27;99229.73;;;10.59;39.87
21086;BME280;72320;50.082;20.000;2023-12-04T23:29:53;99241.74;;;6.72;46.15
21086;BME280;72320;50.082;20.000;2023-12-04T23:32:19;99236.10;;;4.19;52.12
21086;BME280;72320;50.082;20.000;2023-12-04T23:34:45;99220.68;;;2.73;58.79
21086;BME280;72320;50.082;20.000;2023-12-04T23:37:11;99196.40;;;1.65;64.01
21086;BME280;72320;50.082;20.000;2023-12-04T23:39:37;99168.02;;;0.66;68.94
21086;BME280;72320;50.082;20.000;2023-12-04T23:42:03;99144.33;;;-0.12;73.92
21086;BME280;72320;50.082;20.000;2023-12-04T23:44:29;99143.58;;;-0.83;77.82
21086;BME280;72320;50.082;20.000;2023-12-04T23:46:55;99148.36;;;-1.32;80.63
21086;BME280;72320;50.082;20.000;2023-12-04T23:49:23;99152.19;;;-1.56;82.63